Time;durP1;ratioP1;P1;durP2;ratioP2;P2;SDS_P1;SDS_P2;PMS_P1;PMS_P2;Temp;Humidity;BMP_temperature;BMP_pressure;BME280_temperature;BME280_humidity;BME280_pressure;Samples;Min_cycle;Max_cycle;Signal;HPM_P1;HPM_P2
2023/10/22 00:00:26;;;;;;;15.00;10.40;;;;;;;12.05;92.56;100432.61;108434;1256;71426;-80
2023/10/22 00:02:54;;;;;;;16.50;11.60;;;;;;;12.01;92.48;100428.06;107937;1255;60381;-80
2023/10/22 00:05:21;;;;;;;15.60;10.40;;;;;;;11.97;92.33;100435.67;107931;1255;60415;-87
2023/10/22 00:07:49;;;;;;;14.00;10.50;;;;;;;12.02;92.22;100438.45;107975;1255;74036;-81
2023/10/22 00:10:24;;;;;;;14.90;10.80;;;;;;;12.08;91.94;100442.73;108073;1259;72996;-84
2023/10/22 00:12:59;;;;;;;17.70;11.60;;;;;;;12.06;91.64;100438.92;107770;1257;72913;-83
2023/10/22 00:15:27;;;;;;;14.70;11.30;;;;;;;12.06;91.56;100436.10;107866;1256;60558;-80
2023/10/22 00:17:55;;;;;;;16.10;11.20;;;;;;;12.05;91.39;100439.73;108043;1256;60416;-80
2023/10/22 00:20:22;;;;;;;12.90;10.30;;;;;;;12.06;91.48;100429.73;107969;1256;72704;-82
2023/10/22 00:22:50;;;;;;;17.30;12.00;;;;;;;12.02;91.31;100422.11;108020;1256;74904;-80
2023/10/22 00:25:18;;;;;;;14.50;10.60;;;;;;;11.98;91.31;100419.29;107963;1257;72753;-80
2023/10/22 00:27:45;;;;;;;14.40;10.40;;;;;;;11.98;91.24;100416.25;107937;1257;60488;-80
2023/10/22 00:30:13;;;;;;;14.90;11.20;;;;;;;11.95;91.12;100416.98;107857;1257;59937;-81
2023/10/22 00:32:41;;;;;;;15.10;11.40;;;;;;;11.95;91.14;100418.39;108020;1257;73842;-80
2023/10/22 00:35:09;;;;;;;14.50;11.60;;;;;;;11.94;91.23;100411.81;107901;1257;72723;-80
2023/10/22 00:37:36;;;;;;;15.00;10.80;;;;;;;11.96;91.27;100409.60;108007;1257;72482;-81
2023/10/22 00:40:05;;;;;;;15.60;11.20;;;;;;;11.95;91.22;100401.73;108011;1256;60650;-81
2023/10/22 00:42:32;;;;;;;16.30;11.20;;;;;;;11.93;91.15;100400.13;108030;1259;60257;-80
2023/10/22 00:45:00;;;;;;;16.50;11.40;;;;;;;11.93;91.21;100403.77;107865;1256;73923;-81
2023/10/22 00:47:29;;;;;;;13.30;9.90;;;;;;;11.95;91.30;100406.45;107997;1259;71264;-80
2023/10/22 00:49:57;;;;;;;17.00;11.60;;;;;;;11.99;91.38;100407.57;108014;1256;72713;-80
2023/10/22 00:52:25;;;;;;;16.60;11.80;;;;;;;12.01;91.23;100410.04;108024;1257;61685;-81
2023/10/22 00:54:53;;;;;;;16.60;11.20;;;;;;;12.00;91.23;100404.98;107750;1257;60402;-80
2023/10/22 00:57:23;;;;;;;19.20;11.50;;;;;;;12.00;91.27;100403.44;107922;1256;73962;-79
2023/10/22 00:59:54;;;;;;;14.40;11.40;;;;;;;11.98;91.22;100411.27;107973;1257;71892;-80
2023/10/22 01:02:22;;;;;;;17.10;11.90;;;;;;;11.99;91.30;100419.67;107963;1256;72719;-79
2023/10/22 01:04:50;;;;;;;16.10;11.60;;;;;;;12.02;91.32;100416.34;107903;1257;60442;-80
2023/10/22 01:07:18;;;;;;;16.30;12.10;;;;;;;12.02;91.17;100414.26;107941;1256;60450;-81
2023/10/22 01:09:47;;;;;;;16.20;12.10;;;;;;;12.05;91.39;100418.64;107922;1256;72562;-80
2023/10/22 01:12:19;;;;;;;16.80;11.60;;;;;;;12.10;91.41;100416.29;107981;1257;71662;-80
2023/10/22 01:14:47;;;;;;;14.40;11.10;;;;;;;12.15;91.48;100422.44;107982;1255;71397;-79
2023/10/22 01:17:14;;;;;;;16.90;11.60;;;;;;;12.17;91.40;100414.92;107719;1260;60299;-81
2023/10/22 01:19:42;;;;;;;18.00;11.10;;;;;;;12.17;91.30;100416.74;107845;1259;60411;-78
2023/10/22 01:22:10;;;;;;;16.50;11.30;;;;;;;12.16;91.37;100426.77;107751;1260;73853;-79
2023/10/22 01:24:37;;;;;;;17.10;12.80;;;;;;;12.17;91.18;100435.27;108015;1256;72734;-78
2023/10/22 01:27:05;;;;;;;17.10;11.90;;;;;;;12.19;91.39;100437.80;107894;1257;71535;-81
2023/10/22 01:29:33;;;;;;;16.60;12.70;;;;;;;12.25;91.36;100434.03;107961;1257;61673;-80
2023/10/22 01:32:00;;;;;;;17.50;12.20;;;;;;;12.29;91.39;100429.37;108028;1256;60319;-80
2023/10/22 01:34:28;;;;;;;17.40;11.60;;;;;;;12.32;91.36;100429.46;107910;1259;72999;-81
2023/10/22 01:36:55;;;;;;;17.30;11.50;;;;;;;12.32;91.28;100426.78;107933;1257;72612;-79
2023/10/22 01:39:23;;;;;;;16.10;11.60;;;;;;;12.33;91.20;100430.16;107952;1256;72844;-85
2023/10/22 01:41:51;;;;;;;18.10;11.90;;;;;;;12.32;91.11;100432.14;107899;1257;61707;-81
2023/10/22 01:44:19;;;;;;;15.40;11.40;;;;;;;12.30;91.18;100434.45;108021;1257;60306;-80
2023/10/22 01:46:47;;;;;;;15.90;11.90;;;;;;;12.33;91.05;100436.31;107942;1259;72879;-81
2023/10/22 01:49:15;;;;;;;17.80;12.10;;;;;;;12.33;91.10;100430.04;108042;1258;71444;-81
2023/10/22 01:51:43;;;;;;;16.70;11.90;;;;;;;12.30;91.04;100425.34;107965;1257;72441;-82
2023/10/22 01:54:10;;;;;;;16.80;12.30;;;;;;;12.31;91.08;100420.73;107928;1257;60869;-81
2023/10/22 01:56:39;;;;;;;16.40;11.50;;;;;;;12.33;91.12;100420.40;108106;1257;60313;-79
2023/10/22 01:59:07;;;;;;;17.30;11.40;;;;;;;12.35;91.22;100422.49;107923;1257;73919;-79
2023/10/22 02:01:35;;;;;;;18.00;12.80;;;;;;;12.38;91.09;100424.52;107831;1256;72664;-78
2023/10/22 02:04:03;;;;;;;15.20;11.10;;;;;;;12.39;90.99;100425.00;107759;1257;72683;-81
2023/10/22 02:06:30;;;;;;;17.10;11.10;;;;;;;12.39;91.04;100426.07;107993;1256;61758;-81
2023/10/22 02:08:58;;;;;;;17.20;12.30;;;;;;;12.40;91.06;100432.94;107935;1260;60322;-80
2023/10/22 02:11:27;;;;;;;16.00;11.90;;;;;;;12.41;90.86;100434.76;107662;1256;73871;-80
2023/10/22 02:13:55;;;;;;;16.40;12.00;;;;;;;12.43;91.03;100431.48;107894;1256;72718;-80
2023/10/22 02:16:23;;;;;;;16.30;12.20;;;;;;;12.45;90.95;100425.79;107821;1257;71487;-80
2023/10/22 02:18:51;;;;;;;19.20;13.20;;;;;;;12.45;90.78;100431.69;107949;1259;60479;-80
2023/10/22 02:21:21;;;;;;;16.40;12.20;;;;;;;12.46;90.71;100435.02;107958;1256;60293;-80
2023/10/22 02:23:49;;;;;;;17.70;12.10;;;;;;;12.47;90.89;100432.64;107938;1257;72565;-80
2023/10/22 02:26:17;;;;;;;16.00;12.00;;;;;;;12.46;90.71;100431.14;107827;1262;72764;-80
2023/10/22 02:28:44;;;;;;;16.40;11.80;;;;;;;12.47;90.62;100430.98;107949;1258;73242;-80
2023/10/22 02:31:13;;;;;;;17.10;12.80;;;;;;;12.45;90.71;100424.34;107955;1258;60454;-80
2023/10/22 02:33:41;;;;;;;17.80;12.80;;;;;;;12.44;90.72;100425.48;107824;1257;60197;-80
2023/10/22 02:36:11;;;;;;;16.40;11.70;;;;;;;12.45;90.78;100424.39;107771;1258;238842;-80
2023/10/22 02:38:39;;;;;;;19.80;13.60;;;;;;;12.45;90.78;100417.00;107616;1257;72778;-80
2023/10/22 02:41:07;;;;;;;18.30;12.90;;;;;;;12.41;90.75;100410.43;107834;1257;71909;-81
2023/10/22 02:43:34;;;;;;;16.80;12.80;;;;;;;12.38;90.70;100407.92;107820;1257;61671;-80
2023/10/22 02:46:02;;;;;;;17.90;12.30;;;;;;;12.36;90.75;100414.56;107841;1259;60323;-80
2023/10/22 02:48:30;;;;;;;15.80;11.90;;;;;;;12.38;90.73;100418.80;107931;1257;72687;-80
2023/10/22 02:51:03;;;;;;;20.70;13.60;;;;;;;12.41;90.81;100419.92;107881;1259;71457;-80
2023/10/22 02:53:31;;;;;;;19.70;14.40;;;;;;;12.42;90.90;100424.84;107849;1258;71048;-80
2023/10/22 02:56:02;;;;;;;19.50;13.50;;;;;;;12.45;91.01;100426.44;107943;1259;60778;-80
2023/10/22 02:58:30;;;;;;;18.30;13.40;;;;;;;12.47;91.04;100424.98;107853;1257;60489;-81
2023/10/22 03:01:08;;;;;;;16.30;13.20;;;;;;;12.45;90.87;100424.98;107909;1260;72968;-79
2023/10/22 03:03:39;;;;;;;20.50;13.80;;;;;;;12.42;90.85;100429.38;107845;1261;71392;-80
2023/10/22 03:06:07;;;;;;;21.20;14.00;;;;;;;12.45;91.00;100427.45;107982;1258;72375;-80
2023/10/22 03:08:35;;;;;;;16.40;12.40;;;;;;;12.46;90.91;100419.03;108269;1258;62086;-84
2023/10/22 03:11:04;;;;;;;15.90;12.00;;;;;;;12.44;90.89;100419.73;108016;1260;59626;-81
2023/10/22 03:13:32;;;;;;;20.70;14.50;;;;;;;12.41;90.80;100417.77;107964;1260;73873;-81
2023/10/22 03:16:11;;;;;;;21.50;14.40;;;;;;;12.41;90.90;100416.75;107978;1257;71939;-80
2023/10/22 03:18:40;;;;;;;22.20;15.20;;;;;;;12.48;90.97;100407.98;107914;1260;72685;-81
2023/10/22 03:21:18;;;;;;;18.60;13.30;;;;;;;12.52;91.07;100408.46;107906;1258;60439;-80
2023/10/22 03:23:46;;;;;;;19.60;14.20;;;;;;;12.53;90.97;100405.94;107880;1258;60370;-80
2023/10/22 03:26:18;;;;;;;19.00;12.70;;;;;;;12.55;91.05;100398.21;108101;1257;72630;-79
2023/10/22 03:28:46;;;;;;;;;;;;;;;12.54;90.96;100393.41;108013;1256;72749;-80
2023/10/22 03:31:13;;;;;;;23.10;15.20;;;;;;;12.52;91.00;100385.89;107995;1257;72439;-79
2023/10/22 03:33:41;;;;;;;22.70;14.90;;;;;;;12.53;90.87;100382.27;107969;1260;61809;-81
2023/10/22 03:36:11;;;;;;;19.40;13.60;;;;;;;12.54;91.07;100382.05;107941;1258;59457;-80
2023/10/22 03:38:40;;;;;;;19.80;13.70;;;;;;;12.50;90.88;100387.20;108085;1258;72816;-79
2023/10/22 03:41:07;;;;;;;18.80;14.20;;;;;;;12.48;91.02;100394.02;107990;1259;71642;-83
2023/10/22 03:43:35;;;;;;;20.30;14.80;;;;;;;12.48;90.99;100390.16;107967;1260;72493;-81
2023/10/22 03:46:03;;;;;;;20.40;14.10;;;;;;;12.16;91.68;100388.52;107942;1256;61775;-80
2023/10/22 03:48:30;;;;;;;20.60;14.60;;;;;;;12.03;92.53;100385.77;107793;1262;60367;-81
2023/10/22 03:50:59;;;;;;;21.00;14.70;;;;;;;12.02;93.08;100386.69;107759;1262;72971;-80
2023/10/22 03:53:27;;;;;;;18.90;13.60;;;;;;;12.02;93.42;100389.31;107792;1261;72786;-80
2023/10/22 03:55:54;;;;;;;19.70;14.50;;;;;;;12.04;93.70;100393.58;107944;1257;72569;-79
2023/10/22 03:58:23;;;;;;;16.40;12.00;;;;;;;12.06;93.85;100396.26;107997;1257;61650;-80
2023/10/22 04:00:54;;;;;;;23.20;13.70;;;;;;;12.06;94.00;100394.86;107933;1256;59713;-79
2023/10/22 04:03:22;;;;;;;21.00;13.20;;;;;;;12.04;94.11;100397.81;107986;1258;73908;-80
2023/10/22 04:05:57;;;;;;;20.80;13.90;;;;;;;12.02;94.17;100398.67;107938;1259;70971;-80
2023/10/22 04:08:25;;;;;;;19.80;13.70;;;;;;;12.01;94.23;100395.73;107786;1257;71486;-81
2023/10/22 04:10:53;;;;;;;20.60;13.40;;;;;;;12.04;94.36;100398.09;107995;1257;60458;-80
2023/10/22 04:13:21;;;;;;;23.80;14.20;;;;;;;12.08;94.53;100399.52;107943;1257;60513;-80
2023/10/22 04:15:49;;;;;;;19.60;13.40;;;;;;;12.32;94.24;100399.79;108002;1256;76061;-80
2023/10/22 04:18:17;;;;;;;19.70;12.60;;;;;;;12.51;93.23;100396.30;107978;1257;71480;-80
2023/10/22 04:20:51;;;;;;;17.40;12.20;;;;;;;12.52;92.53;100392.34;107848;1257;71529;-79
2023/10/22 04:23:25;;;;;;;22.70;14.20;;;;;;;12.51;92.10;100390.95;107867;1257;60504;-80
2023/10/22 04:25:53;;;;;;;17.60;12.50;;;;;;;12.51;92.11;100388.64;107950;1259;59017;-80
2023/10/22 04:28:23;;;;;;;20.10;13.50;;;;;;;12.51;91.84;100385.59;108048;1257;74877;-80
2023/10/22 04:31:01;;;;;;;18.50;13.20;;;;;;;12.52;91.81;100387.83;107944;1257;72777;-80
2023/10/22 04:33:36;;;;;;;19.20;13.30;;;;;;;12.52;91.63;100388.69;107637;1257;72676;-85
2023/10/22 04:36:21;;;;;;;20.30;13.90;;;;;;;12.54;91.58;100387.23;107937;1256;61716;-81
2023/10/22 04:39:11;;;;;;;16.50;11.70;;;;;;;12.54;91.46;100377.06;107973;1260;60270;-82
2023/10/22 04:41:44;;;;;;;20.40;13.10;;;;;;;12.51;91.37;100374.98;107828;1256;73906;-80
2023/10/22 04:44:22;;;;;;;20.20;13.80;;;;;;;12.46;91.30;100379.17;107898;1260;71431;-80
2023/10/22 04:46:53;;;;;;;20.80;13.80;;;;;;;12.46;91.32;100380.41;107952;1260;72806;-79
2023/10/22 04:49:21;;;;;;;21.00;14.00;;;;;;;12.49;91.51;100383.89;108092;1256;60435;-80
2023/10/22 04:51:50;;;;;;;18.40;12.40;;;;;;;12.54;91.61;100386.91;107984;1259;60255;-79
2023/10/22 04:54:18;;;;;;;20.30;13.90;;;;;;;12.55;91.40;100390.46;107852;1257;73932;-80
2023/10/22 04:56:45;;;;;;;20.00;14.40;;;;;;;12.54;91.45;100390.77;108007;1257;72690;-80
2023/10/22 04:59:14;;;;;;;20.70;14.20;;;;;;;12.54;91.38;100390.84;107986;1258;71715;-79
2023/10/22 05:01:48;;;;;;;21.60;13.90;;;;;;;12.54;91.38;100389.86;107922;1257;60412;-79
2023/10/22 05:04:36;;;;;;;;;;;;;;;12.59;91.36;100392.04;108008;1260;60441;-80
2023/10/22 05:07:04;;;;;;;24.20;15.90;;;;;;;12.63;91.45;100394.75;107844;1257;74018;-80
2023/10/22 05:09:33;;;;;;;24.30;14.70;;;;;;;12.64;91.28;100398.23;107800;1257;72736;-78
2023/10/22 05:12:01;;;;;;;22.30;14.80;;;;;;;12.64;91.18;100398.19;107858;1262;72663;-80
2023/10/22 05:14:29;;;;;;;21.10;14.70;;;;;;;12.65;91.34;100391.04;108055;1257;61693;-82
2023/10/22 05:16:57;;;;;;;20.20;13.80;;;;;;;12.63;91.46;100394.75;107990;1257;60331;-78
2023/10/22 05:19:26;;;;;;;21.40;14.90;;;;;;;12.59;91.53;100390.86;108002;1257;73802;-79
2023/10/22 05:21:55;;;;;;;19.70;13.40;;;;;;;12.56;91.60;100388.98;107724;1261;72762;-80
2023/10/22 05:24:23;;;;;;;21.40;15.00;;;;;;;12.55;91.60;100393.45;107929;1255;72651;-81
2023/10/22 05:26:51;;;;;;;22.80;15.30;;;;;;;12.58;91.34;100400.45;107979;1260;61719;-80
2023/10/22 05:29:19;;;;;;;24.60;15.60;;;;;;;12.60;91.39;100403.92;107815;1257;59188;-79
2023/10/22 05:31:47;;;;;;;23.60;16.40;;;;;;;12.65;91.39;100404.77;108012;1257;75625;-80
2023/10/22 05:34:15;;;;;;;23.80;15.60;;;;;;;12.68;91.38;100401.33;108046;1257;72707;-80
2023/10/22 05:36:43;;;;;;;22.00;14.80;;;;;;;12.72;91.44;100401.80;107845;1258;71401;-81
2023/10/22 05:39:10;;;;;;;22.90;15.80;;;;;;;12.74;91.33;100406.94;107877;1257;60684;-79
2023/10/22 05:41:38;;;;;;;24.30;16.10;;;;;;;12.77;91.38;100415.64;107956;1257;60335;-79
2023/10/22 05:44:05;;;;;;;19.60;13.90;;;;;;;12.81;91.25;100419.17;107983;1259;72600;-80
2023/10/22 05:46:33;;;;;;;22.80;15.20;;;;;;;12.85;91.27;100415.94;107934;1257;71720;-80
2023/10/22 05:49:03;;;;;;;25.20;16.70;;;;;;;12.89;91.34;100421.23;107972;1257;71355;-80
2023/10/22 05:51:32;;;;;;;22.70;15.60;;;;;;;12.97;91.40;100423.88;107942;1257;61768;-81
2023/10/22 05:54:00;;;;;;;28.00;16.70;;;;;;;13.05;91.30;100418.90;107915;1257;60317;-81
2023/10/22 05:56:28;;;;;;;24.90;15.30;;;;;;;13.11;91.18;100425.52;107998;1257;72697;-81
2023/10/22 05:58:56;;;;;;;25.50;15.40;;;;;;;13.16;91.19;100432.78;108036;1257;72687;-80
2023/10/22 06:01:24;;;;;;;24.60;15.80;;;;;;;13.20;91.05;100442.52;107808;1257;72754;-80
2023/10/22 06:03:53;;;;;;;26.50;16.60;;;;;;;13.23;90.84;100440.54;107928;1257;60302;-81
2023/10/22 06:06:21;;;;;;;26.30;16.20;;;;;;;13.23;90.77;100446.70;107990;1257;60311;-81
2023/10/22 06:08:49;;;;;;;28.60;17.80;;;;;;;13.22;90.64;100440.41;107994;1256;73844;-81
2023/10/22 06:11:17;;;;;;;27.60;16.90;;;;;;;13.19;90.49;100443.38;107930;1258;72759;-79
2023/10/22 06:13:45;;;;;;;28.60;17.00;;;;;;;13.17;90.31;100447.05;107904;1256;71494;-80
2023/10/22 06:16:13;;;;;;;28.70;17.50;;;;;;;13.15;90.10;100448.38;107954;1257;61724;-79
2023/10/22 06:18:40;;;;;;;26.80;17.30;;;;;;;13.14;90.14;100447.91;107895;1257;59605;-81
2023/10/22 06:21:15;;;;;;;31.40;19.50;;;;;;;13.14;90.15;100453.12;107955;1256;74884;-80
2023/10/22 06:23:43;;;;;;;34.10;19.20;;;;;;;13.15;89.94;100448.33;107906;1257;71477;-80
2023/10/22 06:26:11;;;;;;;28.10;18.30;;;;;;;13.16;89.98;100441.41;107684;1257;71892;-78
2023/10/22 06:28:39;;;;;;;31.10;19.70;;;;;;;13.19;89.90;100436.02;107906;1257;60425;-79
2023/10/22 06:31:10;;;;;;;37.00;21.30;;;;;;;13.22;89.89;100430.50;108073;1256;60319;-79
2023/10/22 06:33:39;;;;;;;32.70;20.30;;;;;;;13.23;89.90;100430.44;107758;1257;73862;-79
2023/10/22 06:36:12;;;;;;;37.10;22.60;;;;;;;13.17;89.81;100434.39;107910;1256;72760;-80
2023/10/22 06:38:39;;;;;;;38.80;22.70;;;;;;;13.16;90.01;100432.08;107984;1260;72719;-79
2023/10/22 06:41:20;;;;;;;37.40;23.60;;;;;;;13.19;90.13;100428.32;107920;1257;60381;-79
2023/10/22 06:43:48;;;;;;;38.70;23.90;;;;;;;13.22;90.20;100429.95;107760;1257;60319;-79
2023/10/22 06:46:19;;;;;;;42.80;25.20;;;;;;;13.22;90.15;100431.45;107990;1257;72111;-83
2023/10/22 06:48:47;;;;;;;44.30;24.70;;;;;;;13.26;90.25;100431.67;108157;1257;72766;-82
2023/10/22 06:51:19;;;;;;;40.40;24.30;;;;;;;13.32;90.22;100434.27;107860;1258;71489;-81
2023/10/22 06:53:50;;;;;;;43.90;26.70;;;;;;;13.44;90.07;100421.75;108010;1257;60365;-84
2023/10/22 06:56:18;;;;;;;39.00;24.30;;;;;;;13.50;89.92;100417.95;108053;1260;60258;-81
2023/10/22 06:58:46;;;;;;;42.10;26.20;;;;;;;13.55;89.82;100417.27;107927;1260;73943;-78
2023/10/22 07:01:14;;;;;;;44.70;26.00;;;;;;;13.60;89.64;100413.85;107695;1261;70611;-79
2023/10/22 07:03:50;;;;;;;43.20;26.20;;;;;;;13.66;89.52;100407.09;108024;1259;71339;-81
2023/10/22 07:06:20;;;;;;;44.80;26.20;;;;;;;13.73;89.43;100396.14;107948;1260;60528;-79
2023/10/22 07:08:48;;;;;;;43.60;26.80;;;;;;;13.77;89.16;100392.03;108075;1257;60446;-80
2023/10/22 07:11:22;;;;;;;42.90;26.00;;;;;;;13.80;89.09;100389.73;107801;1257;72387;-80
2023/10/22 07:13:50;;;;;;;46.70;26.70;;;;;;;13.82;88.80;100391.70;107837;1264;71505;-81
2023/10/22 07:16:20;;;;;;;46.60;26.30;;;;;;;13.84;88.72;100388.89;107927;1260;71065;-80
2023/10/22 07:18:49;;;;;;;45.20;25.90;;;;;;;13.84;88.63;100389.98;107761;1259;60455;-79
2023/10/22 07:21:16;;;;;;;41.50;26.10;;;;;;;13.87;88.54;100392.06;107726;1259;60283;-80
2023/10/22 07:23:53;;;;;;;41.20;25.10;;;;;;;13.84;88.36;100389.48;107986;1260;72624;-80
2023/10/22 07:26:26;;;;;;;45.20;27.00;;;;;;;13.82;88.23;100385.74;108170;1257;71477;-81
2023/10/22 07:28:53;;;;;;;48.50;27.80;;;;;;;13.80;88.18;100388.08;108099;1257;72693;-80
2023/10/22 07:31:21;;;;;;;50.20;28.10;;;;;;;13.84;88.18;100383.80;107886;1257;60408;-80
2023/10/22 07:33:50;;;;;;;47.60;27.50;;;;;;;13.88;88.14;100380.80;107908;1256;60319;-82
2023/10/22 07:36:17;;;;;;;46.10;27.60;;;;;;;13.93;88.10;100377.91;108000;1256;73889;-81
2023/10/22 07:38:51;;;;;;;47.40;27.20;;;;;;;13.99;88.18;100379.78;107972;1256;71460;-80
2023/10/22 07:41:20;;;;;;;42.60;25.00;;;;;;;14.03;87.99;100376.64;107951;1256;72044;-81
2023/10/22 07:43:48;;;;;;;45.80;27.80;;;;;;;14.04;87.93;100374.53;107974;1256;61728;-80
2023/10/22 07:46:16;;;;;;;42.60;26.50;;;;;;;14.03;87.85;100370.77;107970;1256;60348;-81
2023/10/22 07:48:45;;;;;;;47.20;26.50;;;;;;;14.02;88.04;100368.85;108066;1256;74430;-79
2023/10/22 07:51:18;;;;;;;42.40;26.20;;;;;;;14.03;88.10;100357.63;107993;1257;72657;-80
2023/10/22 07:53:46;;;;;;;42.40;25.70;;;;;;;14.04;88.02;100350.84;107811;1257;72880;-81
2023/10/22 07:56:18;;;;;;;44.80;26.70;;;;;;;14.04;88.00;100352.13;107943;1257;60504;-81
2023/10/22 07:58:45;;;;;;;47.30;29.90;;;;;;;14.04;87.84;100350.63;107896;1256;60445;-80
2023/10/22 08:01:19;;;;;;;49.70;30.30;;;;;;;14.07;88.01;100358.88;107927;1257;73845;-80
2023/10/22 08:03:49;;;;;;;48.10;29.60;;;;;;;14.17;88.10;100353.77;107917;1256;73250;-80
2023/10/22 08:06:17;;;;;;;50.70;30.30;;;;;;;14.28;88.08;100350.54;107915;1260;72787;-79
2023/10/22 08:08:45;;;;;;;51.10;29.80;;;;;;;14.34;87.91;100351.91;107916;1257;61647;-81
2023/10/22 08:11:14;;;;;;;49.60;29.40;;;;;;;14.45;87.61;100349.58;107885;1256;61104;-79
2023/10/22 08:13:41;;;;;;;52.50;30.80;;;;;;;14.49;87.19;100350.38;107985;1257;74797;-80
2023/10/22 08:16:10;;;;;;;53.60;31.60;;;;;;;14.52;86.93;100341.50;107985;1256;71448;-80
2023/10/22 08:18:38;;;;;;;53.50;32.00;;;;;;;14.59;86.78;100331.35;108061;1258;71378;-81
2023/10/22 08:21:06;;;;;;;52.20;30.70;;;;;;;14.68;86.68;100318.08;107967;1257;61719;-81
2023/10/22 08:23:34;;;;;;;51.70;31.60;;;;;;;14.76;86.57;100306.07;107917;1258;59315;-79
2023/10/22 08:26:02;;;;;;;53.00;32.00;;;;;;;14.83;86.22;100298.77;107878;1257;74849;-81
2023/10/22 08:28:30;;;;;;;47.00;30.20;;;;;;;14.87;85.91;100291.57;108001;1257;72504;-82
2023/10/22 08:30:59;;;;;;;54.50;32.00;;;;;;;14.87;85.45;100291.14;107949;1257;72123;-80
2023/10/22 08:33:28;;;;;;;52.00;30.90;;;;;;;14.91;85.39;100289.41;108089;1258;61099;-80
2023/10/22 08:36:03;;;;;;;48.20;30.40;;;;;;;14.96;85.16;100285.02;107935;1259;61175;-79
2023/10/22 08:38:31;;;;;;;47.30;29.40;;;;;;;14.98;84.66;100273.38;107910;1256;73510;-80
2023/10/22 08:41:01;;;;;;;45.90;28.70;;;;;;;14.93;84.21;100272.59;108009;1257;70940;-80
2023/10/22 08:43:32;;;;;;;50.20;30.00;;;;;;;14.93;84.07;100265.98;107965;1259;71444;-82
2023/10/22 08:46:00;;;;;;;51.00;30.90;;;;;;;14.91;83.74;100264.67;108027;1256;61216;-82
2023/10/22 08:48:28;;;;;;;45.00;28.50;;;;;;;14.93;83.75;100269.10;107787;1257;61370;-80
2023/10/22 08:50:55;;;;;;;46.80;30.40;;;;;;;15.01;83.71;100267.20;107930;1257;73466;-80
2023/10/22 08:53:23;;;;;;;48.70;30.80;;;;;;;15.08;83.56;100264.45;107780;1257;71263;-81
2023/10/22 08:55:51;;;;;;;50.90;30.10;;;;;;;15.18;83.56;100259.65;107927;1257;72778;-80
2023/10/22 08:58:20;;;;;;;46.60;29.30;;;;;;;15.32;83.40;100250.28;107841;1257;62925;-81
2023/10/22 09:00:48;;;;;;;47.80;29.20;;;;;;;15.44;83.10;100245.27;107852;1259;61109;-80
2023/10/22 09:03:17;;;;;;;54.40;31.30;;;;;;;15.49;82.53;100237.96;107805;1259;73452;-81
2023/10/22 09:05:46;;;;;;;49.70;30.20;;;;;;;15.51;82.15;100230.61;108052;1259;72764;-81
2023/10/22 09:08:16;;;;;;;44.20;27.70;;;;;;;15.58;81.93;100226.98;107972;1257;72675;-80
2023/10/22 09:10:44;;;;;;;45.80;30.10;;;;;;;15.69;81.83;100221.58;107943;1256;61151;-80
2023/10/22 09:13:15;;;;;;;48.80;29.20;;;;;;;15.83;81.61;100212.64;107964;1256;60015;-79
2023/10/22 09:15:44;;;;;;;;;;;;;;;15.92;81.13;100203.71;108010;1256;72797;-80
2023/10/22 09:18:11;;;;;;;45.80;27.60;;;;;;;16.01;80.99;100191.40;108124;1257;73916;-78
2023/10/22 09:20:41;;;;;;;48.10;28.30;;;;;;;15.99;80.03;100179.07;107933;1257;72088;-80
2023/10/22 09:23:21;;;;;;;47.10;30.30;;;;;;;15.90;79.32;100169.39;107911;1256;61160;-80
2023/10/22 09:25:54;;;;;;;46.70;27.70;;;;;;;15.85;79.19;100175.42;107999;1257;61100;-80
2023/10/22 09:28:30;;;;;;;40.40;26.20;;;;;;;15.86;79.14;100175.67;107982;1256;73275;-80
2023/10/22 09:30:59;;;;;;;42.00;26.30;;;;;;;15.88;79.12;100178.44;107918;1256;71404;-79
2023/10/22 09:33:32;;;;;;;46.90;27.60;;;;;;;15.77;78.93;100170.15;107974;1256;71582;-80
2023/10/22 09:36:04;;;;;;;43.00;26.10;;;;;;;15.63;78.64;100161.31;108023;1256;61190;-80
2023/10/22 09:38:49;;;;;;;43.70;27.60;;;;;;;15.53;78.71;100162.15;108072;1256;61262;-79
2023/10/22 09:41:23;;;;;;;41.90;27.30;;;;;;;15.55;78.93;100162.05;107952;1256;73901;-79
2023/10/22 09:43:57;;;;;;;41.30;27.30;;;;;;;15.60;79.13;100170.29;107937;1256;71571;-77
2023/10/22 09:46:32;;;;;;;42.80;28.20;;;;;;;15.63;79.02;100171.27;108008;1256;72808;-81
2023/10/22 09:49:03;;;;;;;42.20;27.70;;;;;;;15.64;78.98;100171.25;108030;1256;61065;-80
2023/10/22 09:51:35;;;;;;;42.00;27.30;;;;;;;15.67;79.01;100165.54;108018;1256;60396;-78
2023/10/22 09:54:05;;;;;;;43.40;27.90;;;;;;;15.78;78.50;100165.23;107832;1257;73392;-79
2023/10/22 09:56:52;;;;;;;40.40;28.60;;;;;;;15.88;78.31;100159.60;107854;1257;71895;-80
2023/10/22 09:59:22;;;;;;;38.00;26.70;;;;;;;16.00;78.22;100154.38;107702;1256;71961;-81
2023/10/22 10:01:50;;;;;;;43.50;28.50;;;;;;;16.06;77.90;100146.86;107900;1257;61298;-81
2023/10/22 10:04:19;;;;;;;39.80;28.20;;;;;;;16.17;77.74;100143.59;107960;1257;61084;-81
2023/10/22 10:06:47;;;;;;;37.00;26.20;;;;;;;16.28;77.48;100143.02;107908;1256;72417;-82
2023/10/22 10:09:16;;;;;;;40.70;27.30;;;;;;;16.41;77.34;100132.80;107914;1256;72736;-79
2023/10/22 10:11:44;;;;;;;42.90;29.60;;;;;;;16.53;77.13;100126.57;107894;1256;72669;-79
2023/10/22 10:14:32;;;;;;;36.30;26.30;;;;;;;16.63;76.77;100122.45;107805;1257;61216;-81
2023/10/22 10:17:01;;;;;;;39.00;26.90;;;;;;;16.72;76.19;100117.48;107768;1258;61059;-80
2023/10/22 10:19:29;;;;;;;39.00;26.70;;;;;;;16.78;75.74;100113.90;107842;1257;73405;-80
2023/10/22 10:22:03;;;;;;;34.50;24.60;;;;;;;16.92;75.74;100113.06;107878;1257;72849;-80
2023/10/22 10:24:43;;;;;;;42.40;29.10;;;;;;;17.10;75.29;100103.77;107847;1257;72750;-78
2023/10/22 10:27:11;;;;;;;36.50;27.10;;;;;;;17.31;74.97;100101.21;107655;1257;62587;-80
2023/10/22 10:29:40;;;;;;;38.80;27.80;;;;;;;17.49;74.46;100099.89;107871;1257;61067;-79
2023/10/22 10:32:14;;;;;;;39.10;26.90;;;;;;;17.65;73.61;100092.67;107816;1258;73379;-84
2023/10/22 10:34:52;;;;;;;39.40;27.60;;;;;;;17.74;72.83;100082.24;107930;1256;72743;-81
2023/10/22 10:37:20;;;;;;;33.90;24.50;;;;;;;17.79;71.99;100078.62;107926;1256;72528;-80
2023/10/22 10:39:54;;;;;;;38.70;26.90;;;;;;;17.74;71.19;100071.02;107855;1256;61687;-80
2023/10/22 10:42:28;;;;;;;40.10;27.40;;;;;;;17.60;70.69;100056.84;107891;1258;60080;-80
2023/10/22 10:44:59;;;;;;;41.30;29.60;;;;;;;17.47;70.71;100051.09;107880;1257;73071;-79
2023/10/22 10:47:33;;;;;;;41.60;27.20;;;;;;;17.31;70.93;100045.05;107872;1260;71561;-79
2023/10/22 10:50:03;;;;;;;40.40;28.10;;;;;;;17.18;71.25;100041.56;107792;1257;73220;-79
2023/10/22 10:52:34;;;;;;;39.30;26.00;;;;;;;17.13;71.74;100044.58;107861;1257;61840;-78
2023/10/22 10:55:08;;;;;;;39.60;26.50;;;;;;;17.20;72.13;100055.48;107824;1259;61352;-79
2023/10/22 10:57:38;;;;;;;39.60;25.20;;;;;;;17.27;72.13;100068.94;107975;1256;74561;-79
2023/10/22 11:00:09;;;;;;;41.10;28.50;;;;;;;17.30;71.73;100071.83;107910;1256;72757;-79
2023/10/22 11:02:41;;;;;;;42.50;30.20;;;;;;;17.25;71.48;100062.13;107850;1256;71452;-77
2023/10/22 11:05:12;;;;;;;41.60;28.90;;;;;;;17.18;71.63;100045.89;108026;1256;61292;-79
2023/10/22 11:07:40;;;;;;;43.50;28.40;;;;;;;17.12;71.67;100059.05;108014;1256;61188;-79
2023/10/22 11:10:09;;;;;;;45.80;28.80;;;;;;;17.08;71.88;100068.42;108007;1256;74488;-80
2023/10/22 11:12:39;;;;;;;40.60;28.60;;;;;;;17.03;72.00;100076.18;108017;1256;71452;-79